createdAt,value
2022-07-25T00:00:04.099Z,3.90
2022-07-25T00:00:17.343Z,3.58
2022-07-25T00:00:30.841Z,3.95
2022-07-25T00:00:44.558Z,4.72
2022-07-25T00:00:57.414Z,5.00
2022-07-25T00:01:13.328Z,4.60
2022-07-25T00:01:26.904Z,5.10
2022-07-25T00:01:43.396Z,5.05
2022-07-25T00:01:56.861Z,4.18
2022-07-25T00:02:10.552Z,4.03
2022-07-25T00:02:23.530Z,3.87
2022-07-25T00:02:36.473Z,3.97
2022-07-25T00:02:49.558Z,4.45
2022-07-25T00:03:02.771Z,4.93
2022-07-25T00:03:18.523Z,4.70
2022-07-25T00:03:32.331Z,5.03
2022-07-25T00:03:45.169Z,4.57
2022-07-25T00:03:58.063Z,3.87
2022-07-25T00:04:12.179Z,3.65
2022-07-25T00:04:25.847Z,3.53
2022-07-25T00:04:38.894Z,3.83
2022-07-25T00:04:52.078Z,3.83
2022-07-25T00:05:09.323Z,3.95
2022-07-25T00:05:22.244Z,4.30
2022-07-25T00:05:39.054Z,4.05
2022-07-25T00:05:52.029Z,3.90
2022-07-25T00:06:05.179Z,4.40
2022-07-25T00:06:18.231Z,4.60
2022-07-25T00:06:31.178Z,4.25
2022-07-25T00:06:45.054Z,4.28
2022-07-25T00:06:58.055Z,4.00
2022-07-25T00:07:12.020Z,4.18
2022-07-25T00:07:24.863Z,4.20
2022-07-25T00:07:37.773Z,3.85
2022-07-25T00:07:50.798Z,4.00
2022-07-25T00:08:03.828Z,4.07
2022-07-25T00:08:16.886Z,4.43
2022-07-25T00:08:29.725Z,4.22
2022-07-25T00:08:44.538Z,4.22
2022-07-25T00:08:57.380Z,4.30
2022-07-25T00:09:10.503Z,3.90
2022-07-25T00:09:23.561Z,4.45
2022-07-25T00:09:36.568Z,4.87
2022-07-25T00:09:54.445Z,4.78
2022-07-25T00:10:07.999Z,4.87
2022-07-25T00:10:20.902Z,5.28
2022-07-25T00:10:33.943Z,4.90
2022-07-25T00:10:47.383Z,3.85
2022-07-25T00:11:00.283Z,5.65
2022-07-25T00:11:13.285Z,7.40
2022-07-25T00:11:26.147Z,6.32
2022-07-25T00:11:38.999Z,4.95
2022-07-25T00:11:51.894Z,4.93
2022-07-25T00:12:04.866Z,4.70
2022-07-25T00:12:19.281Z,4.93
2022-07-25T00:12:32.610Z,4.78
2022-07-25T00:12:45.554Z,4.72
2022-07-25T00:13:00.287Z,4.32
2022-07-25T00:13:13.604Z,4.72
2022-07-25T00:13:26.467Z,4.65
2022-07-25T00:13:39.340Z,3.97
2022-07-25T00:13:52.676Z,4.12
2022-07-25T00:14:06.059Z,4.32
2022-07-25T00:14:19.196Z,4.05
2022-07-25T00:14:32.104Z,4.18
2022-07-25T00:14:45.442Z,4.05
2022-07-25T00:14:59.271Z,4.80
2022-07-25T00:15:12.169Z,4.95
2022-07-25T00:15:25.135Z,4.78
2022-07-25T00:15:38.094Z,5.18
2022-07-25T00:15:51.093Z,4.80
2022-07-25T00:16:04.427Z,3.55
2022-07-25T00:16:17.360Z,3.28
2022-07-25T00:16:30.327Z,3.87
2022-07-25T00:16:43.725Z,4.28
2022-07-25T00:17:01.733Z,4.80
2022-07-25T00:17:14.808Z,5.62
2022-07-25T00:17:27.677Z,6.68
2022-07-25T00:17:40.807Z,5.72
2022-07-25T00:17:53.783Z,4.82
2022-07-25T00:18:16.252Z,4.45
2022-07-25T00:18:29.650Z,4.43
2022-07-25T00:18:42.770Z,4.37
2022-07-25T00:18:55.702Z,3.80
2022-07-25T00:19:08.999Z,3.72
2022-07-25T00:19:22.016Z,4.78
2022-07-25T00:19:34.947Z,4.55
2022-07-25T00:19:47.918Z,3.78
2022-07-25T00:20:01.224Z,4.40
2022-07-25T00:20:14.351Z,6.18
2022-07-25T00:20:27.484Z,6.15
2022-07-25T00:20:40.511Z,4.35
2022-07-25T00:20:53.522Z,3.60
2022-07-25T00:21:06.450Z,3.80
2022-07-25T00:21:19.314Z,3.85
2022-07-25T00:21:32.746Z,3.65
2022-07-25T00:21:45.703Z,3.58
2022-07-25T00:21:58.785Z,3.92
2022-07-25T00:22:11.678Z,4.28
2022-07-25T00:22:24.570Z,4.30
2022-07-25T00:22:37.917Z,3.80
2022-07-25T00:22:50.789Z,4.05
2022-07-25T00:23:03.635Z,4.18
2022-07-25T00:23:16.429Z,4.07
2022-07-25T00:23:29.393Z,3.60
2022-07-25T00:23:42.336Z,3.70
2022-07-25T00:23:55.212Z,3.53
2022-07-25T00:24:08.701Z,3.47
2022-07-25T00:24:22.125Z,3.92
2022-07-25T00:24:35.302Z,3.95
2022-07-25T00:24:48.288Z,4.07
2022-07-25T00:25:01.292Z,4.65
2022-07-25T00:25:14.497Z,4.97
2022-07-25T00:25:27.541Z,5.25
2022-07-25T00:25:40.424Z,4.68
2022-07-25T00:25:53.274Z,4.43
2022-07-25T00:26:06.227Z,4.05
2022-07-25T00:26:23.104Z,3.70
2022-07-25T00:26:39.972Z,3.90
2022-07-25T00:26:53.325Z,4.75
2022-07-25T00:27:06.153Z,5.18
2022-07-25T00:27:22.914Z,5.62
2022-07-25T00:27:35.779Z,5.12
2022-07-25T00:27:49.017Z,3.90
2022-07-25T00:28:01.877Z,4.60
2022-07-25T00:28:14.787Z,4.85
2022-07-25T00:28:27.643Z,4.53
2022-07-25T00:28:40.676Z,4.40
2022-07-25T00:28:53.556Z,4.00
2022-07-25T00:29:06.597Z,4.43
2022-07-25T00:29:19.688Z,4.47
2022-07-25T00:29:32.758Z,3.90
2022-07-25T00:29:45.671Z,3.87
2022-07-25T00:29:58.551Z,4.55
2022-07-25T00:30:11.662Z,4.53
2022-07-25T00:30:24.544Z,4.37
2022-07-25T00:30:37.465Z,4.40
2022-07-25T00:30:50.485Z,4.53
2022-07-25T00:31:03.517Z,3.85
2022-07-25T00:31:16.536Z,4.60
2022-07-25T00:31:29.525Z,4.60
2022-07-25T00:31:42.463Z,4.12
2022-07-25T00:31:55.355Z,4.35
2022-07-25T00:32:08.394Z,3.97
2022-07-25T00:32:21.349Z,4.43
2022-07-25T00:32:35.373Z,4.57
2022-07-25T00:32:48.427Z,4.70
2022-07-25T00:33:01.311Z,4.72
2022-07-25T00:33:14.358Z,4.20
2022-07-25T00:33:27.273Z,3.78
2022-07-25T00:33:40.480Z,3.92
2022-07-25T00:33:53.478Z,4.00
2022-07-25T00:34:07.205Z,4.87
2022-07-25T00:34:20.389Z,4.93
2022-07-25T00:34:33.408Z,4.25
2022-07-25T00:34:46.262Z,4.37
2022-07-25T00:34:59.114Z,5.00
2022-07-25T00:35:12.117Z,5.05
2022-07-25T00:35:25.121Z,4.35
2022-07-25T00:35:37.960Z,4.87
2022-07-25T00:35:50.841Z,4.65
2022-07-25T00:36:03.906Z,4.37
2022-07-25T00:36:17.845Z,4.93
2022-07-25T00:36:30.688Z,4.95
2022-07-25T00:36:43.662Z,4.57
2022-07-25T00:36:56.495Z,4.37
2022-07-25T00:37:09.503Z,3.65
2022-07-25T00:37:22.372Z,3.85
2022-07-25T00:37:35.272Z,4.18
2022-07-25T00:37:48.123Z,4.15
2022-07-25T00:38:01.079Z,4.45
2022-07-25T00:38:13.971Z,4.43
2022-07-25T00:38:26.845Z,5.10
2022-07-25T00:38:39.742Z,4.78
2022-07-25T00:38:52.581Z,4.55
2022-07-25T00:39:05.595Z,4.30
2022-07-25T00:39:18.464Z,5.65
2022-07-25T00:39:31.330Z,6.05
2022-07-25T00:39:44.333Z,4.35
2022-07-25T00:39:57.176Z,4.05
2022-07-25T00:40:10.799Z,3.95
2022-07-25T00:40:23.705Z,3.90
2022-07-25T00:40:37.108Z,4.30
2022-07-25T00:40:54.554Z,4.62
2022-07-25T00:41:08.624Z,4.50
2022-07-25T00:41:21.931Z,3.75
2022-07-25T00:41:35.614Z,3.40
2022-07-25T00:41:48.456Z,3.87
2022-07-25T00:42:02.345Z,4.18
2022-07-25T00:42:15.855Z,4.00
2022-07-25T00:42:28.768Z,4.05
2022-07-25T00:42:41.696Z,3.92
2022-07-25T00:42:55.067Z,4.32
2022-07-25T00:43:08.073Z,4.80
2022-07-25T00:43:20.954Z,4.40
2022-07-25T00:43:33.823Z,3.20
2022-07-25T00:43:46.934Z,3.35
2022-07-25T00:43:59.984Z,3.58
2022-07-25T00:44:31.492Z,3.80
2022-07-25T00:44:44.342Z,4.50
2022-07-25T00:44:57.235Z,4.00
2022-07-25T00:45:10.996Z,4.22
2022-07-25T00:45:23.876Z,4.55
2022-07-25T00:45:36.740Z,4.50
2022-07-25T00:45:49.591Z,4.53
2022-07-25T00:46:02.480Z,3.85
2022-07-25T00:46:18.799Z,3.65
2022-07-25T00:46:32.151Z,4.12
2022-07-25T00:46:45.305Z,3.92
2022-07-25T00:46:58.703Z,3.70
2022-07-25T00:47:11.789Z,3.65
2022-07-25T00:47:24.735Z,3.83
2022-07-25T00:47:37.808Z,4.18
2022-07-25T00:48:09.198Z,4.95
2022-07-25T00:48:22.318Z,5.40
2022-07-25T00:48:35.568Z,4.85
2022-07-25T00:48:48.527Z,4.30
2022-07-25T00:49:01.687Z,3.42
2022-07-25T00:49:14.669Z,3.30
2022-07-25T00:49:27.656Z,3.80
2022-07-25T00:49:40.563Z,4.37
2022-07-25T00:49:53.647Z,4.53
2022-07-25T00:50:07.037Z,4.47
2022-07-25T00:50:20.904Z,3.72
2022-07-25T00:50:33.811Z,3.83
2022-07-25T00:50:46.703Z,4.87
2022-07-25T00:50:59.776Z,4.78
2022-07-25T00:51:12.662Z,4.70
2022-07-25T00:51:25.494Z,4.55
2022-07-25T00:51:38.391Z,4.70
2022-07-25T00:51:51.827Z,4.70
2022-07-25T00:52:05.106Z,4.32
2022-07-25T00:52:18.129Z,4.22
2022-07-25T00:52:31.121Z,4.10
2022-07-25T00:52:44.882Z,3.95
2022-07-25T00:52:57.878Z,3.92
2022-07-25T00:53:11.465Z,4.53
2022-07-25T00:53:24.599Z,5.12
2022-07-25T00:53:37.990Z,5.03
2022-07-25T00:53:50.904Z,4.53
2022-07-25T00:54:04.021Z,4.00
2022-07-25T00:54:17.353Z,4.03
2022-07-25T00:54:30.271Z,4.70
2022-07-25T00:54:43.198Z,6.10
2022-07-25T00:54:58.051Z,5.40
2022-07-25T00:55:11.679Z,3.80
2022-07-25T00:55:25.235Z,4.43
2022-07-25T00:55:38.268Z,5.35
2022-07-25T00:55:51.984Z,5.57
2022-07-25T00:56:05.834Z,4.82
2022-07-25T00:56:18.710Z,4.47
2022-07-25T00:56:31.645Z,4.93
2022-07-25T00:56:44.554Z,4.68
2022-07-25T00:56:57.445Z,3.85
2022-07-25T00:57:10.303Z,3.53
2022-07-25T00:57:23.367Z,3.60
2022-07-25T00:57:36.285Z,4.12
2022-07-25T00:57:49.157Z,4.82
2022-07-25T00:58:02.317Z,5.40
2022-07-25T00:58:15.434Z,4.68
2022-07-25T00:58:29.718Z,4.20
2022-07-25T00:58:43.207Z,4.40
2022-07-25T00:58:57.104Z,4.32
2022-07-25T00:59:10.099Z,4.40
2022-07-25T00:59:23.139Z,4.10
2022-07-25T00:59:36.115Z,3.87
2022-07-25T00:59:49.048Z,3.72
2022-07-25T01:00:02.468Z,3.55
2022-07-25T01:00:15.855Z,3.60
2022-07-25T01:00:28.909Z,3.58
2022-07-25T01:00:43.168Z,4.12
2022-07-25T01:00:56.122Z,4.72
2022-07-25T01:01:09.021Z,4.60
2022-07-25T01:01:22.007Z,4.53
2022-07-25T01:01:35.561Z,4.50
2022-07-25T01:01:48.686Z,4.73
2022-07-25T01:02:03.782Z,4.47
2022-07-25T01:02:17.226Z,4.05
2022-07-25T01:02:30.297Z,4.32
2022-07-25T01:02:43.264Z,3.92
2022-07-25T01:02:56.477Z,3.70
2022-07-25T01:03:09.827Z,3.22
2022-07-25T01:03:22.738Z,3.10
2022-07-25T01:03:35.634Z,3.10
2022-07-25T01:03:48.833Z,3.22
2022-07-25T01:04:02.171Z,4.45
2022-07-25T01:04:15.773Z,4.45
2022-07-25T01:04:28.655Z,4.37
2022-07-25T01:04:41.700Z,4.60
2022-07-25T01:04:55.067Z,4.07
2022-07-25T01:05:08.599Z,3.35
2022-07-25T01:05:23.777Z,3.55
2022-07-25T01:05:36.866Z,3.80
2022-07-25T01:05:53.699Z,3.97
2022-07-25T01:06:07.134Z,3.50
2022-07-25T01:06:20.213Z,3.85
2022-07-25T01:06:37.680Z,3.92
2022-07-25T01:06:50.579Z,3.53
2022-07-25T01:07:03.453Z,3.78
2022-07-25T01:07:16.328Z,4.22
2022-07-25T01:07:29.235Z,4.45
2022-07-25T01:07:42.158Z,4.37
2022-07-25T01:07:55.020Z,4.43
2022-07-25T01:08:08.036Z,3.92
2022-07-25T01:08:21.265Z,4.28
2022-07-25T01:08:34.715Z,4.78
2022-07-25T01:08:47.725Z,4.30
2022-07-25T01:09:01.149Z,3.78
2022-07-25T01:09:14.180Z,3.65
2022-07-25T01:09:27.332Z,3.92
2022-07-25T01:09:42.579Z,3.67
2022-07-25T01:09:55.531Z,3.80
2022-07-25T01:10:08.855Z,4.18
2022-07-25T01:10:21.861Z,3.83
2022-07-25T01:10:35.117Z,3.30
2022-07-25T01:10:57.047Z,4.10
2022-07-25T01:11:10.124Z,5.10
2022-07-25T01:11:23.099Z,5.80
2022-07-25T01:11:35.963Z,5.15
2022-07-25T01:11:48.840Z,4.97
2022-07-25T01:12:01.819Z,4.05
2022-07-25T01:12:14.793Z,4.03
2022-07-25T01:12:27.686Z,4.57
2022-07-25T01:12:53.685Z,4.53
2022-07-25T01:13:06.659Z,5.85
2022-07-25T01:13:19.542Z,4.93
2022-07-25T01:13:34.625Z,4.43
2022-07-25T01:13:47.497Z,3.78
2022-07-25T01:14:00.431Z,4.22
2022-07-25T01:14:13.347Z,4.85
2022-07-25T01:14:26.217Z,4.82
2022-07-25T01:14:39.446Z,3.90
2022-07-25T01:14:52.454Z,3.90
2022-07-25T01:15:05.754Z,3.60
2022-07-25T01:15:19.918Z,3.80
2022-07-25T01:15:33.113Z,3.80
2022-07-25T01:15:46.077Z,3.28
2022-07-25T01:15:59.024Z,3.70
2022-07-25T01:16:14.071Z,3.90
2022-07-25T01:16:27.170Z,4.20
2022-07-25T01:16:41.341Z,5.20
2022-07-25T01:16:54.202Z,5.05
2022-07-25T01:17:09.361Z,5.60
2022-07-25T01:17:22.385Z,5.70
2022-07-25T01:17:35.225Z,4.57
2022-07-25T01:17:48.317Z,4.35
2022-07-25T01:18:01.206Z,3.42
2022-07-25T01:18:15.134Z,3.35
2022-07-25T01:18:28.016Z,3.55
2022-07-25T01:18:40.986Z,4.25
2022-07-25T01:18:53.833Z,4.30
2022-07-25T01:19:06.991Z,4.90
2022-07-25T01:19:20.076Z,4.43
2022-07-25T01:19:32.944Z,4.03
2022-07-25T01:19:47.234Z,3.92
2022-07-25T01:20:02.033Z,4.18
2022-07-25T01:20:21.280Z,3.87
2022-07-25T01:20:34.232Z,4.28
2022-07-25T01:20:47.221Z,4.43
2022-07-25T01:21:00.772Z,4.47
2022-07-25T01:21:14.567Z,4.93
2022-07-25T01:21:27.489Z,4.37
2022-07-25T01:21:41.428Z,3.58
2022-07-25T01:21:56.357Z,3.65
2022-07-25T01:22:09.208Z,3.60
2022-07-25T01:22:22.100Z,2.97
2022-07-25T01:22:35.075Z,3.72
2022-07-25T01:22:48.213Z,4.75
2022-07-25T01:23:01.524Z,4.45
2022-07-25T01:23:14.478Z,4.55
2022-07-25T01:23:27.882Z,4.53
2022-07-25T01:23:41.440Z,4.25
2022-07-25T01:23:54.351Z,4.43
2022-07-25T01:24:12.475Z,4.57
2022-07-25T01:24:25.407Z,4.05
2022-07-25T01:24:39.244Z,3.62
2022-07-25T01:24:52.175Z,3.95
2022-07-25T01:25:05.411Z,4.85
2022-07-25T01:25:20.235Z,4.72
2022-07-25T01:25:33.090Z,4.28
2022-07-25T01:25:46.085Z,4.32
2022-07-25T01:25:59.098Z,3.85
2022-07-25T01:26:13.267Z,4.32
2022-07-25T01:26:26.293Z,4.45
2022-07-25T01:26:39.249Z,4.45
2022-07-25T01:26:52.143Z,3.83
2022-07-25T01:27:05.081Z,4.30
2022-07-25T01:27:17.944Z,4.45
2022-07-25T01:27:31.743Z,4.05
2022-07-25T01:27:44.620Z,3.53
2022-07-25T01:27:58.250Z,3.72
2022-07-25T01:28:11.105Z,3.90
2022-07-25T01:28:24.190Z,4.45
2022-07-25T01:28:37.206Z,5.00
2022-07-25T01:28:50.305Z,4.32
2022-07-25T01:29:03.351Z,4.30
2022-07-25T01:29:16.372Z,4.50
2022-07-25T01:29:29.379Z,4.50
2022-07-25T01:29:42.246Z,5.25
2022-07-25T01:29:55.638Z,5.25
2022-07-25T01:30:10.217Z,4.47
2022-07-25T01:30:23.489Z,4.80
2022-07-25T01:30:36.594Z,4.70
2022-07-25T01:30:49.576Z,5.72
2022-07-25T01:31:02.668Z,6.10
2022-07-25T01:31:16.128Z,5.43
2022-07-25T01:31:29.290Z,5.00
2022-07-25T01:31:42.355Z,5.00
2022-07-25T01:31:56.171Z,4.03
2022-07-25T01:32:09.151Z,3.10
2022-07-25T01:32:22.218Z,3.75
2022-07-25T01:32:40.052Z,4.47
2022-07-25T01:32:53.031Z,4.37
2022-07-25T01:33:07.022Z,4.03
2022-07-25T01:33:21.009Z,3.67
2022-07-25T01:33:33.885Z,3.58
2022-07-25T01:33:46.826Z,4.55
2022-07-25T01:33:59.707Z,4.80
2022-07-25T01:34:13.089Z,4.78
2022-07-25T01:34:26.133Z,4.35
2022-07-25T01:34:39.072Z,3.95
2022-07-25T01:34:51.983Z,3.78
2022-07-25T01:35:05.827Z,4.00
2022-07-25T01:35:18.926Z,4.68
2022-07-25T01:35:31.819Z,4.32
2022-07-25T01:35:45.087Z,3.87
2022-07-25T01:35:58.040Z,4.62
2022-07-25T01:36:11.144Z,4.62
2022-07-25T01:36:24.078Z,4.20
2022-07-25T01:36:36.951Z,4.25
2022-07-25T01:36:49.788Z,4.43
2022-07-25T01:37:03.631Z,4.35
2022-07-25T01:37:16.533Z,3.67
2022-07-25T01:37:31.436Z,3.37
2022-07-25T01:37:46.066Z,3.60
2022-07-25T01:37:59.387Z,4.55
2022-07-25T01:38:12.408Z,4.67
2022-07-25T01:38:25.317Z,5.12
2022-07-25T01:38:38.415Z,4.78
2022-07-25T01:38:55.367Z,4.57
2022-07-25T01:39:08.366Z,5.05
2022-07-25T01:39:21.679Z,4.87
2022-07-25T01:39:34.817Z,4.45
2022-07-25T01:39:47.907Z,4.37
2022-07-25T01:40:00.827Z,3.87
2022-07-25T01:40:14.345Z,4.00
2022-07-25T01:40:27.365Z,4.45
2022-07-25T01:40:40.320Z,4.57
2022-07-25T01:40:53.243Z,4.60
2022-07-25T01:41:06.372Z,4.97
2022-07-25T01:41:22.673Z,4.68
2022-07-25T01:41:35.875Z,4.30
2022-07-25T01:41:48.779Z,3.97
2022-07-25T01:42:04.164Z,3.72
2022-07-25T01:42:17.279Z,3.85
2022-07-25T01:42:30.130Z,3.62
2022-07-25T01:42:44.331Z,3.47
2022-07-25T01:42:57.318Z,3.25
2022-07-25T01:43:10.681Z,3.83
2022-07-25T01:43:23.743Z,4.40
2022-07-25T01:43:37.003Z,4.50
2022-07-25T01:43:50.130Z,4.95
2022-07-25T01:44:07.303Z,5.70
2022-07-25T01:44:20.455Z,5.55
2022-07-25T01:44:33.314Z,5.03
2022-07-25T01:44:46.349Z,5.60
2022-07-25T01:44:59.469Z,5.47
2022-07-25T01:45:12.495Z,4.15
2022-07-25T01:45:25.470Z,4.62
2022-07-25T01:45:38.366Z,4.45
2022-07-25T01:45:51.305Z,4.07
2022-07-25T01:46:04.350Z,4.37
2022-07-25T01:46:17.737Z,4.65
2022-07-25T01:46:31.658Z,4.15
2022-07-25T01:46:44.648Z,3.50
2022-07-25T01:46:57.977Z,3.40
2022-07-25T01:47:10.822Z,3.65
2022-07-25T01:47:23.873Z,4.07
2022-07-25T01:47:37.128Z,4.37
2022-07-25T01:47:50.053Z,4.15
2022-07-25T01:48:03.130Z,4.32
2022-07-25T01:48:16.025Z,4.30
2022-07-25T01:48:30.286Z,4.22
2022-07-25T01:48:43.394Z,4.75
2022-07-25T01:48:56.517Z,4.87
2022-07-25T01:49:09.595Z,5.20
2022-07-25T01:49:22.523Z,4.97
2022-07-25T01:49:35.534Z,4.40
2022-07-25T01:49:48.418Z,4.37
2022-07-25T01:50:01.552Z,3.85
2022-07-25T01:50:14.556Z,3.80
2022-07-25T01:50:27.908Z,3.85
2022-07-25T01:50:40.769Z,3.65
2022-07-25T01:50:53.725Z,3.83
2022-07-25T01:51:08.211Z,4.00
2022-07-25T01:51:24.091Z,4.00
2022-07-25T01:51:39.412Z,4.35
2022-07-25T01:51:53.007Z,4.12
2022-07-25T01:52:06.254Z,3.80
2022-07-25T01:52:19.267Z,4.60
2022-07-25T01:52:32.154Z,4.90
2022-07-25T01:52:45.051Z,5.05
2022-07-25T01:52:57.920Z,4.68
2022-07-25T01:53:10.779Z,5.07
2022-07-25T01:53:23.694Z,5.25
2022-07-25T01:53:37.682Z,4.70
2022-07-25T01:53:51.330Z,4.20
2022-07-25T01:54:04.651Z,4.55
2022-07-25T01:54:22.509Z,4.85
2022-07-25T01:54:35.557Z,4.43
2022-07-25T01:54:52.845Z,4.10
2022-07-25T01:55:06.689Z,3.60
2022-07-25T01:55:20.192Z,3.50
2022-07-25T01:55:33.286Z,4.43
2022-07-25T01:55:50.005Z,5.47
2022-07-25T01:56:08.404Z,4.05
2022-07-25T01:56:23.044Z,3.95
2022-07-25T01:56:36.730Z,3.97
2022-07-25T01:56:49.643Z,3.80
2022-07-25T01:57:02.524Z,4.22
2022-07-25T01:57:15.405Z,4.50
2022-07-25T01:57:30.672Z,4.05
2022-07-25T01:57:49.426Z,3.62
2022-07-25T01:58:03.432Z,4.10
2022-07-25T01:58:16.279Z,4.43
2022-07-25T01:58:30.517Z,4.55
2022-07-25T01:58:43.574Z,4.72
2022-07-25T01:58:56.472Z,4.18
2022-07-25T01:59:09.378Z,3.25
2022-07-25T01:59:22.267Z,3.65
2022-07-25T01:59:39.251Z,3.80
2022-07-25T01:59:52.109Z,3.58
2022-07-25T02:00:06.307Z,3.92
2022-07-25T02:00:19.318Z,4.28
2022-07-25T02:00:36.370Z,4.65
2022-07-25T02:00:57.970Z,4.80
2022-07-25T02:01:10.909Z,4.40
2022-07-25T02:01:23.937Z,3.95
2022-07-25T02:01:37.236Z,4.12
2022-07-25T02:01:51.272Z,4.78
2022-07-25T02:02:04.479Z,4.22
2022-07-25T02:02:17.404Z,4.03
2022-07-25T02:02:30.753Z,4.40
2022-07-25T02:02:43.991Z,4.47
2022-07-25T02:03:15.247Z,4.05
2022-07-25T02:03:32.809Z,4.43
2022-07-25T02:03:45.865Z,3.85
2022-07-25T02:03:59.165Z,4.45
2022-07-25T02:04:12.410Z,4.20
2022-07-25T02:04:25.481Z,3.80
2022-07-25T02:04:38.495Z,3.78
2022-07-25T02:04:51.557Z,3.80
2022-07-25T02:05:04.796Z,3.87
2022-07-25T02:05:17.708Z,4.30
2022-07-25T02:05:30.588Z,5.32
2022-07-25T02:05:43.454Z,4.60
2022-07-25T02:05:57.592Z,3.87
2022-07-25T02:06:10.476Z,4.07
2022-07-25T02:06:23.375Z,3.85
2022-07-25T02:06:36.309Z,4.25
2022-07-25T02:06:49.664Z,5.07
2022-07-25T02:07:02.690Z,5.62
2022-07-25T02:07:15.562Z,4.85
2022-07-25T02:07:28.439Z,4.05
2022-07-25T02:07:41.341Z,3.90
2022-07-25T02:07:54.244Z,3.83
2022-07-25T02:08:07.169Z,4.28
2022-07-25T02:08:23.281Z,4.22
2022-07-25T02:08:36.166Z,4.35
2022-07-25T02:08:49.076Z,4.70
2022-07-25T02:09:03.702Z,4.28
2022-07-25T02:09:16.581Z,3.87
2022-07-25T02:09:29.520Z,4.12
2022-07-25T02:09:42.523Z,4.15
2022-07-25T02:09:57.013Z,4.30
2022-07-25T02:10:10.123Z,3.97
2022-07-25T02:10:22.999Z,4.18
2022-07-25T02:10:36.004Z,4.20
2022-07-25T02:10:50.147Z,3.72
2022-07-25T02:11:03.076Z,3.75
2022-07-25T02:11:16.094Z,4.00
2022-07-25T02:11:29.357Z,3.95
2022-07-25T02:11:42.367Z,4.32
2022-07-25T02:11:55.261Z,3.92
2022-07-25T02:12:08.493Z,3.58
2022-07-25T02:12:21.469Z,4.90
2022-07-25T02:12:34.533Z,4.72
2022-07-25T02:12:52.322Z,4.07
2022-07-25T02:13:05.660Z,5.00
2022-07-25T02:13:19.386Z,4.78
2022-07-25T02:13:32.295Z,4.07
2022-07-25T02:13:45.177Z,4.00
2022-07-25T02:13:58.216Z,3.83
2022-07-25T02:14:11.095Z,4.03
2022-07-25T02:14:24.946Z,4.10
2022-07-25T02:14:37.897Z,3.65
2022-07-25T02:14:50.775Z,3.87
2022-07-25T02:15:03.818Z,3.92
2022-07-25T02:15:16.901Z,4.07
2022-07-25T02:15:29.771Z,4.32
2022-07-25T02:15:42.804Z,4.45
2022-07-25T02:15:56.060Z,4.28
2022-07-25T02:16:08.929Z,3.95
2022-07-25T02:16:28.871Z,4.53
2022-07-25T02:16:42.401Z,4.07
2022-07-25T02:16:55.369Z,4.30
2022-07-25T02:17:08.462Z,4.00
2022-07-25T02:17:21.701Z,3.95
2022-07-25T02:17:50.370Z,4.53
2022-07-25T02:18:03.378Z,4.43
2022-07-25T02:18:16.258Z,3.75
2022-07-25T02:18:30.042Z,3.62
2022-07-25T02:18:44.006Z,4.53
2022-07-25T02:18:57.021Z,4.60
2022-07-25T02:19:09.906Z,3.80
2022-07-25T02:19:22.858Z,3.90
2022-07-25T02:19:36.354Z,5.18
2022-07-25T02:19:49.258Z,5.82
2022-07-25T02:20:02.304Z,4.65
2022-07-25T02:20:15.471Z,3.75
2022-07-25T02:20:28.327Z,3.80
2022-07-25T02:20:41.693Z,4.25
2022-07-25T02:20:54.555Z,4.47
2022-07-25T02:21:14.398Z,4.53
2022-07-25T02:21:27.670Z,4.37
2022-07-25T02:21:40.545Z,3.47
2022-07-25T02:21:53.503Z,3.33
2022-07-25T02:22:06.738Z,3.40
2022-07-25T02:22:19.992Z,4.20
2022-07-25T02:22:32.877Z,4.62
2022-07-25T02:22:54.195Z,4.05
2022-07-25T02:23:07.099Z,4.00
2022-07-25T02:23:20.177Z,3.90
2022-07-25T02:23:33.657Z,3.83
2022-07-25T02:23:46.748Z,4.05
2022-07-25T02:23:59.687Z,4.10
2022-07-25T02:24:12.723Z,3.95
2022-07-25T02:24:25.802Z,3.72
2022-07-25T02:24:38.741Z,3.62
2022-07-25T02:24:51.662Z,4.68
2022-07-25T02:25:04.922Z,4.43
2022-07-25T02:25:18.301Z,3.95
2022-07-25T02:25:31.306Z,3.83
2022-07-25T02:25:45.247Z,3.72
2022-07-25T02:25:58.085Z,3.92
2022-07-25T02:26:12.090Z,3.65
2022-07-25T02:26:25.005Z,3.65
2022-07-25T02:26:38.015Z,3.87
2022-07-25T02:26:50.976Z,3.78
2022-07-25T02:27:04.941Z,4.40
2022-07-25T02:27:17.778Z,4.47
2022-07-25T02:27:30.700Z,4.28
2022-07-25T02:27:43.554Z,3.50
2022-07-25T02:27:56.946Z,3.35
2022-07-25T02:28:10.772Z,3.30
2022-07-25T02:28:23.942Z,3.95
2022-07-25T02:28:36.889Z,4.10
2022-07-25T02:28:50.134Z,4.03
2022-07-25T02:29:03.453Z,4.28
2022-07-25T02:29:16.383Z,3.87
2022-07-25T02:29:29.414Z,3.40
2022-07-25T02:29:48.169Z,4.12
2022-07-25T02:30:01.017Z,5.07
2022-07-25T02:30:13.966Z,4.70
2022-07-25T02:30:27.878Z,4.45
2022-07-25T02:30:41.114Z,4.95
2022-07-25T02:30:54.315Z,4.05
2022-07-25T02:31:07.651Z,3.10
2022-07-25T02:31:20.634Z,3.20
2022-07-25T02:31:33.560Z,3.92
2022-07-25T02:31:46.442Z,4.78
2022-07-25T02:32:01.666Z,4.80
2022-07-25T02:32:14.513Z,4.45
2022-07-25T02:32:27.407Z,4.68
2022-07-25T02:32:40.268Z,4.43
2022-07-25T02:32:53.264Z,3.58
2022-07-25T02:33:06.170Z,3.67
2022-07-25T02:33:19.064Z,3.72
2022-07-25T02:33:31.926Z,3.87
2022-07-25T02:33:44.901Z,4.03
2022-07-25T02:33:57.854Z,4.25
2022-07-25T02:34:10.721Z,3.85
2022-07-25T02:34:23.782Z,4.32
2022-07-25T02:34:37.759Z,4.62
2022-07-25T02:34:50.663Z,4.07
2022-07-25T02:35:05.412Z,4.03
2022-07-25T02:35:26.432Z,3.97
2022-07-25T02:35:39.333Z,3.78
2022-07-25T02:35:52.245Z,4.25
2022-07-25T02:36:05.257Z,4.20
2022-07-25T02:36:18.107Z,4.65
2022-07-25T02:36:35.241Z,4.47
2022-07-25T02:36:48.337Z,4.20
2022-07-25T02:37:01.205Z,3.65
2022-07-25T02:37:14.111Z,3.90
2022-07-25T02:37:27.125Z,4.65
2022-07-25T02:37:40.124Z,4.68
2022-07-25T02:37:53.176Z,4.05
2022-07-25T02:38:06.242Z,4.22
2022-07-25T02:38:22.005Z,4.20
2022-07-25T02:38:35.344Z,3.92
2022-07-25T02:38:48.401Z,3.25
2022-07-25T02:39:01.283Z,3.60
2022-07-25T02:39:14.129Z,3.75
2022-07-25T02:39:26.986Z,4.47
2022-07-25T02:39:40.456Z,4.47
2022-07-25T02:39:53.522Z,4.82
2022-07-25T02:40:07.107Z,4.95
2022-07-25T02:40:20.136Z,4.07
2022-07-25T02:40:33.147Z,3.95
2022-07-25T02:40:47.511Z,4.50
2022-07-25T02:41:00.527Z,4.10
2022-07-25T02:41:13.549Z,3.47
2022-07-25T02:41:26.769Z,3.47
2022-07-25T02:41:43.820Z,3.97
2022-07-25T02:42:00.894Z,4.20
2022-07-25T02:42:13.757Z,4.20
2022-07-25T02:42:26.787Z,4.12
2022-07-25T02:42:39.642Z,4.10
2022-07-25T02:42:52.685Z,3.97
2022-07-25T02:43:05.641Z,4.28
2022-07-25T02:43:18.867Z,4.45
2022-07-25T02:43:32.637Z,4.15
2022-07-25T02:43:45.604Z,4.00
2022-07-25T02:43:58.994Z,3.78
2022-07-25T02:44:13.487Z,3.40
2022-07-25T02:44:26.691Z,4.57
2022-07-25T02:44:39.654Z,4.82
2022-07-25T02:44:56.475Z,4.37
2022-07-25T02:45:09.755Z,4.47
2022-07-25T02:45:23.092Z,4.00
2022-07-25T02:45:36.088Z,3.40
2022-07-25T02:45:49.104Z,4.07
2022-07-25T02:46:21.926Z,4.18
2022-07-25T02:46:35.341Z,3.97
2022-07-25T02:46:48.509Z,3.85
2022-07-25T02:47:01.423Z,4.35
2022-07-25T02:47:19.152Z,5.53
2022-07-25T02:47:32.036Z,4.50
2022-07-25T02:47:44.955Z,3.70
2022-07-25T02:48:16.905Z,3.60
2022-07-25T02:48:29.967Z,3.53
2022-07-25T02:48:42.863Z,4.12
2022-07-25T02:48:55.862Z,4.35
2022-07-25T02:49:08.921Z,4.03
2022-07-25T02:49:21.948Z,4.20
2022-07-25T02:49:34.923Z,4.45
2022-07-25T02:49:47.820Z,4.60
2022-07-25T02:50:01.110Z,5.00
2022-07-25T02:50:14.513Z,4.35
2022-07-25T02:50:27.852Z,3.83
2022-07-25T02:50:42.639Z,4.10
2022-07-25T02:50:55.478Z,4.62
2022-07-25T02:51:08.529Z,4.20
2022-07-25T02:51:21.625Z,3.25
2022-07-25T02:51:34.638Z,3.28
2022-07-25T02:51:47.513Z,4.00
2022-07-25T02:52:00.592Z,4.30
2022-07-25T02:52:13.829Z,3.72
2022-07-25T02:52:27.034Z,3.78
2022-07-25T02:52:40.151Z,4.03
2022-07-25T02:52:54.922Z,3.50
2022-07-25T02:53:08.062Z,3.55
2022-07-25T02:53:39.965Z,3.62
2022-07-25T02:53:57.103Z,4.30
2022-07-25T02:54:11.615Z,3.72
2022-07-25T02:54:25.777Z,3.80
2022-07-25T02:54:39.616Z,4.00
2022-07-25T02:54:52.518Z,3.85
2022-07-25T02:55:09.572Z,3.25
2022-07-25T02:55:22.791Z,4.62
2022-07-25T02:55:35.662Z,5.75
2022-07-25T02:55:48.769Z,5.10
2022-07-25T02:56:01.705Z,3.67
2022-07-25T02:56:14.584Z,3.22
2022-07-25T02:56:29.855Z,2.95
2022-07-25T02:56:43.455Z,2.92
2022-07-25T02:56:56.340Z,3.22
2022-07-25T02:57:09.202Z,3.53
2022-07-25T02:57:22.085Z,3.83
2022-07-25T02:57:34.995Z,3.55
2022-07-25T02:57:47.881Z,3.67
2022-07-25T02:58:00.766Z,4.50
2022-07-25T02:58:15.035Z,5.97
2022-07-25T02:58:27.853Z,5.82
2022-07-25T02:58:40.974Z,4.50
2022-07-25T02:58:54.629Z,4.12
2022-07-25T02:59:07.665Z,4.07
2022-07-25T02:59:20.537Z,4.00
2022-07-25T02:59:33.475Z,4.47
2022-07-25T02:59:46.730Z,3.75
2022-07-25T02:59:59.723Z,3.80
2022-07-25T03:00:13.376Z,3.47
2022-07-25T03:00:26.457Z,4.00
2022-07-25T03:00:39.410Z,4.65
2022-07-25T03:00:52.533Z,4.65
2022-07-25T03:01:05.657Z,4.65
2022-07-25T03:01:18.733Z,4.18
2022-07-25T03:01:32.931Z,4.00